Time;durP1;ratioP1;P1;durP2;ratioP2;P2;SDS_P1;SDS_P2;PMS_P1;PMS_P2;Temp;Humidity;BMP_temperature;BMP_pressure;BME280_temperature;BME280_humidity;BME280_pressure;Samples;Min_cycle;Max_cycle;Signal;HPM_P1;HPM_P2
2022/02/03 00:00:42;;;;;;;12.68;4.00;;;2.90;1.00;;;;;;5163212;27;20218;-80
2022/02/03 00:03:17;;;;;;;13.95;5.97;;;2.90;1.00;;;;;;5161375;27;20272;-81
2022/02/03 00:05:49;;;;;;;8.98;3.45;;;2.80;1.00;;;;;;5144771;27;20213;-81
2022/02/03 00:08:28;;;;;;;7.70;3.25;;;2.80;1.00;;;;;;5146642;27;20934;-82
2022/02/03 00:11:16;;;;;;;10.52;3.90;;;2.80;1.00;;;;;;5161497;27;20222;-81
2022/02/03 00:16:45;;;;;;;11.15;4.18;;;2.70;1.00;;;;;;5169142;27;21551;-81
2022/02/03 00:22:13;;;;;;;11.68;3.60;;;2.60;1.00;;;;;;5163388;27;20724;-81
2022/02/03 00:24:59;;;;;;;9.38;5.03;;;2.60;1.00;;;;;;5151514;27;20222;-80
2022/02/03 00:27:51;;;;;;;15.18;4.68;;;2.70;1.00;;;;;;5150682;27;21197;-81
2022/02/03 00:30:20;;;;;;;11.38;4.10;;;2.70;1.00;;;;;;5166721;27;20358;-81
2022/02/03 00:35:53;;;;;;;12.45;3.55;;;2.80;1.00;;;;;;5147488;27;21207;-81
2022/02/03 00:38:28;;;;;;;9.27;3.72;;;2.70;1.00;;;;;;5169365;27;20228;-81
2022/02/03 00:49:32;;;;;;;10.82;3.95;;;2.70;1.00;;;;;;5144600;27;20241;-81
2022/02/03 00:52:00;;;;;;;14.10;3.70;;;2.70;1.00;;;;;;5160060;27;20241;-81
2022/02/03 00:54:31;;;;;;;10.98;3.70;;;2.60;1.00;;;;;;5162266;27;20222;-81
2022/02/03 00:57:01;;;;;;;9.18;2.80;;;2.60;1.00;;;;;;5163170;27;20218;-81
2022/02/03 00:59:35;;;;;;;11.82;3.55;;;2.50;1.00;;;;;;5163029;27;20230;-81
2022/02/03 01:02:05;;;;;;;10.10;4.10;;;2.50;1.00;;;;;;5159037;27;20304;-81
2022/02/03 01:04:36;;;;;;;8.63;3.22;;;2.50;1.00;;;;;;5162472;27;20264;-80
2022/02/03 01:07:08;;;;;;;9.77;2.95;;;2.40;1.00;;;;;;5161750;27;20244;-81
2022/02/03 01:09:40;;;;;;;10.80;3.85;;;2.40;1.00;;;;;;5161972;27;20228;-80
2022/02/03 01:12:17;;;;;;;11.05;3.55;;;2.40;1.00;;;;;;5157526;27;20233;-80
2022/02/03 01:14:52;;;;;;;7.47;2.40;;;2.40;1.00;;;;;;5142075;27;20268;-81
2022/02/03 01:17:31;;;;;;;8.77;3.70;;;2.40;1.00;;;;;;5153349;27;20217;-81
2022/02/03 01:34:09;;;;;;;8.80;3.85;;;2.30;1.00;;;;;;5139266;27;20226;-81
2022/02/03 01:45:21;;;;;;;9.48;3.67;;;2.60;1.00;;;;;;5157598;27;20246;-82
2022/02/03 01:48:07;;;;;;;13.27;3.10;;;2.70;1.00;;;;;;5167814;27;20217;-81
2022/02/03 01:53:30;;;;;;;7.30;2.47;;;2.90;1.00;;;;;;5155614;27;20312;-82
2022/02/03 01:56:04;;;;;;;12.48;3.30;;;2.90;1.00;;;;;;5154505;27;20217;-81
2022/02/03 01:58:38;;;;;;;7.45;3.60;;;2.90;1.00;;;;;;5162929;27;20230;-81
2022/02/03 02:01:05;;;;;;;10.13;3.00;;;3.00;1.00;;;;;;5162785;27;20225;-81
2022/02/03 02:03:40;;;;;;;8.73;2.67;;;3.00;1.00;;;;;;5140912;27;20305;-81
2022/02/03 02:06:36;;;;;;;12.98;3.38;;;3.00;1.00;;;;;;5157972;27;20221;-81
2022/02/03 02:09:08;;;;;;;6.68;3.95;;;3.00;1.00;;;;;;5161658;27;20314;-80
2022/02/03 02:11:56;;;;;;;15.02;4.05;;;3.00;1.00;;;;;;5167896;27;20221;-81
2022/02/03 02:14:53;;;;;;;9.48;3.03;;;3.10;1.00;;;;;;5189332;27;21632;-81
2022/02/03 02:17:59;;;;;;;8.68;3.17;;;3.10;1.00;;;;;;5167977;27;20730;-81
2022/02/03 02:37:37;;;;;;;10.23;3.95;;;3.30;1.00;;;;;;5162558;27;20300;-82
2022/02/03 02:43:02;;;;;;;9.90;4.05;;;3.30;1.00;;;;;;5161875;27;20314;-83
2022/02/03 02:45:40;;;;;;;9.90;3.72;;;3.30;1.00;;;;;;5164421;27;20239;-81
2022/02/03 02:48:23;;;;;;;16.55;4.40;;;3.30;1.00;;;;;;5141151;27;20209;-81
2022/02/03 02:50:59;;;;;;;10.00;3.53;;;3.30;1.00;;;;;;5152174;27;20248;-80
2022/02/03 02:53:40;;;;;;;9.57;3.88;;;3.30;1.00;;;;;;5147994;27;20335;-81
2022/02/03 02:56:20;;;;;;;13.82;3.28;;;3.30;1.00;;;;;;5166514;27;20226;-82
2022/02/03 03:02:08;;;;;;;12.45;3.75;;;3.30;1.00;;;;;;5151584;27;20230;-82
2022/02/03 03:30:07;;;;;;;11.23;4.07;;;3.40;1.00;;;;;;5162820;27;21322;-81
2022/02/03 03:32:53;;;;;;;10.77;3.50;;;3.30;1.00;;;;;;5162716;27;21421;-82
2022/02/03 03:35:37;;;;;;;8.90;3.13;;;3.40;1.00;;;;;;5160062;27;20225;-82
2022/02/03 03:38:08;;;;;;;7.85;3.25;;;3.30;1.00;;;;;;5169813;27;20266;-82
2022/02/03 03:40:39;;;;;;;8.98;2.95;;;3.30;1.00;;;;;;5170022;27;20229;-82
2022/02/03 03:43:08;;;;;;;9.25;3.22;;;3.30;1.00;;;;;;5170183;27;20344;-81
2022/02/03 03:45:38;;;;;;;11.20;3.25;;;3.30;1.00;;;;;;5166706;27;20230;-81
2022/02/03 03:48:09;;;;;;;14.90;4.55;;;3.30;1.00;;;;;;5170133;27;20211;-82
2022/02/03 03:50:39;;;;;;;12.45;4.43;;;3.40;1.00;;;;;;5153170;27;20222;-82
2022/02/03 03:53:13;;;;;;;11.77;4.20;;;3.40;1.00;;;;;;5174383;27;20258;-82
2022/02/03 03:55:49;;;;;;;11.13;4.60;;;3.40;1.00;;;;;;5145735;27;20226;-82
2022/02/03 04:33:39;;;;;;;12.63;4.70;;;3.40;1.00;;;;;;5166731;27;20242;-82
2022/02/03 04:36:58;;;;;;;8.60;4.72;;;3.40;1.00;;;;;;5147189;27;20217;-82
2022/02/03 04:42:56;;;;;;;11.10;5.05;;;3.50;1.00;;;;;;5146112;27;20221;-81
2022/02/03 04:46:17;;;;;;;12.55;6.22;;;3.50;1.00;;;;;;5149463;27;20218;-81
2022/02/03 04:55:17;;;;;;;11.98;7.65;;;3.30;1.00;;;;;;5128785;27;21049;-81
2022/02/03 05:01:14;;;;;;;13.90;7.32;;;3.20;1.00;;;;;;5142213;27;20233;-82
2022/02/03 05:04:06;;;;;;;15.68;5.10;;;3.20;1.00;;;;;;5167806;27;20218;-82
2022/02/03 05:07:04;;;;;;;15.75;6.88;;;3.20;1.00;;;;;;5170590;27;20222;-82
2022/02/03 05:09:59;;;;;;;15.35;6.38;;;3.20;1.00;;;;;;5164535;27;20210;-83
2022/02/03 05:12:54;;;;;;;18.00;5.90;;;3.20;1.00;;;;;;5166449;27;20226;-82
2022/02/03 05:15:43;;;;;;;10.48;6.07;;;3.20;1.00;;;;;;5164636;27;20750;-83
2022/02/03 05:22:18;;;;;;;13.55;5.65;;;3.20;1.00;;;;;;5169461;27;20252;-81
2022/02/03 05:25:27;;;;;;;15.93;5.57;;;3.30;1.00;;;;;;5169385;27;20612;-82
2022/02/03 05:44:04;;;;;;;13.98;4.85;;;3.30;1.00;;;;;;5148472;27;20233;-82
2022/02/03 05:46:54;;;;;;;18.10;5.57;;;3.20;1.00;;;;;;5165410;27;20252;-82
2022/02/03 05:49:51;;;;;;;13.90;5.18;;;3.20;1.00;;;;;;5169864;27;20225;-81
2022/02/03 05:55:27;;;;;;;14.23;5.15;;;3.20;1.00;;;;;;5175423;27;20241;-82
2022/02/03 06:01:18;;;;;;;12.25;4.07;;;3.20;1.00;;;;;;5146578;27;20240;-82
2022/02/03 06:04:10;;;;;;;10.93;3.35;;;3.20;1.00;;;;;;5179985;27;20292;-82
2022/02/03 06:09:47;;;;;;;8.80;3.50;;;3.20;1.00;;;;;;5113431;27;20848;-82
2022/02/03 06:12:42;;;;;;;14.65;3.65;;;3.20;1.00;;;;;;5146270;27;20286;-83
2022/02/03 06:15:18;;;;;;;17.25;4.13;;;3.10;1.00;;;;;;5148149;27;20218;-82
2022/02/03 06:20:40;;;;;;;20.17;5.25;;;3.10;1.00;;;;;;5171417;27;20220;-82
2022/02/03 06:21:16;;;;;;;11.23;3.95;;;3.10;1.00;;;;;;5165609;27;20226;-82
2022/02/03 06:23:48;;;;;;;10.13;3.70;;;3.10;1.00;;;;;;5167664;27;20242;-82
2022/02/03 06:29:02;;;;;;;8.82;3.42;;;3.20;1.00;;;;;;5163550;27;20240;-83
2022/02/03 06:31:30;;;;;;;12.13;4.40;;;3.20;1.00;;;;;;5159537;27;20218;-86
2022/02/03 06:33:57;;;;;;;15.15;4.10;;;3.20;1.00;;;;;;5145815;27;20244;-84
2022/02/03 06:36:24;;;;;;;15.15;3.70;;;3.20;1.00;;;;;;5155044;27;20249;-84
2022/02/03 06:38:52;;;;;;;10.82;4.40;;;3.30;1.00;;;;;;5171570;27;20839;-84
2022/02/03 06:41:19;;;;;;;18.55;4.90;;;3.30;1.00;;;;;;5165119;27;20260;-83
2022/02/03 06:43:46;;;;;;;12.40;4.00;;;3.30;1.00;;;;;;5164048;27;20217;-82
2022/02/03 06:46:14;;;;;;;14.40;4.78;;;3.30;1.00;;;;;;5167933;27;20217;-83
2022/02/03 06:48:52;;;;;;;11.35;4.90;;;3.30;1.00;;;;;;5174128;27;20250;-86
2022/02/03 06:51:30;;;;;;;11.57;4.20;;;3.30;1.00;;;;;;5167619;27;20218;-84
2022/02/03 06:54:04;;;;;;;15.95;5.40;;;3.20;1.00;;;;;;5172181;27;20245;-87
2022/02/03 06:56:37;;;;;;;13.18;4.57;;;3.20;1.00;;;;;;5153396;27;20278;-85
2022/02/03 06:59:09;;;;;;;10.57;4.55;;;3.20;1.00;;;;;;5178086;27;20222;-87
2022/02/03 07:01:39;;;;;;;13.38;4.55;;;3.20;1.00;;;;;;5169515;27;20263;-86
2022/02/03 07:04:16;;;;;;;10.07;4.88;;;3.20;1.00;;;;;;5199986;27;20368;-88
2022/02/03 07:06:43;;;;;;;11.65;3.90;;;3.20;1.00;;;;;;5173438;27;20874;-88
2022/02/03 07:09:29;;;;;;;14.68;5.22;;;3.30;1.00;;;;;;5173427;27;20252;-87
2022/02/03 07:11:58;;;;;;;10.25;4.65;;;3.30;1.00;;;;;;5167664;27;20210;-87
2022/02/03 07:14:30;;;;;;;10.38;4.43;;;3.30;1.00;;;;;;5168725;27;20265;-86
2022/02/03 07:17:08;;;;;;;10.30;4.13;;;3.40;1.00;;;;;;5146387;27;20333;-87
2022/02/03 07:19:43;;;;;;;8.05;4.05;;;3.40;1.00;;;;;;5170698;27;20221;-86
2022/02/03 07:22:11;;;;;;;11.30;4.90;;;3.40;1.00;;;;;;5147373;27;20247;-86
2022/02/03 07:24:38;;;;;;;11.52;4.40;;;3.40;1.00;;;;;;5148511;27;20226;-87
2022/02/03 07:27:06;;;;;;;12.95;4.75;;;3.40;1.00;;;;;;5167656;27;20284;-87
2022/02/03 07:29:34;;;;;;;12.57;4.40;;;3.50;1.00;;;;;;5143724;27;20651;-86
2022/02/03 07:32:02;;;;;;;13.27;4.38;;;3.50;1.00;;;;;;5167032;27;20238;-86
2022/02/03 07:34:30;;;;;;;16.40;5.70;;;3.60;1.00;;;;;;5163003;27;20276;-88
2022/02/03 07:36:58;;;;;;;9.50;4.85;;;3.60;1.00;;;;;;5172802;27;20254;-88
2022/02/03 07:39:26;;;;;;;10.98;4.30;;;3.50;1.00;;;;;;5173267;27;20319;-85
2022/02/03 07:41:53;;;;;;;10.80;4.72;;;3.60;1.00;;;;;;5169034;27;20230;-87
2022/02/03 07:44:20;;;;;;;13.65;4.30;;;3.60;1.00;;;;;;5167203;27;20677;-86
2022/02/03 07:46:47;;;;;;;13.23;4.38;;;3.70;1.00;;;;;;5145837;27;21483;-88
2022/02/03 07:49:14;;;;;;;12.57;4.22;;;3.80;1.00;;;;;;5148358;27;20226;-86
2022/02/03 07:51:47;;;;;;;8.63;4.78;;;3.80;1.00;;;;;;5161447;27;20225;-87
2022/02/03 07:54:17;;;;;;;10.13;3.90;;;3.90;1.00;;;;;;5176041;27;20214;-88
2022/02/03 07:56:44;;;;;;;15.20;4.93;;;4.00;1.00;;;;;;5153560;27;20225;-82
2022/02/03 07:59:11;;;;;;;10.55;5.10;;;4.10;1.00;;;;;;5137900;27;20221;-82
2022/02/03 08:01:38;;;;;;;20.52;6.07;;;4.10;1.00;;;;;;5156497;27;20221;-81
2022/02/03 08:04:07;;;;;;;11.63;5.63;;;4.10;1.00;;;;;;5158455;27;21136;-83
2022/02/03 08:06:39;;;;;;;17.58;4.90;;;4.20;1.00;;;;;;5165748;27;21100;-84
2022/02/03 08:09:17;;;;;;;21.08;5.72;;;4.20;1.00;;;;;;5165990;27;20222;-85
2022/02/03 08:12:01;;;;;;;13.68;4.28;;;4.20;1.00;;;;;;5175307;27;20224;-87
2022/02/03 09:54:06;;;;;;;11.63;6.75;;;7.30;1.00;;;;;;4967435;28;20240;-87
2022/02/03 09:57:05;;;;;;;11.30;5.30;;;7.20;1.00;;;;;;4943233;28;20236;-86
2022/02/03 09:59:42;;;;;;;13.13;5.10;;;7.20;1.00;;;;;;4949353;28;20312;-89
2022/02/03 10:02:20;;;;;;;10.63;4.40;;;7.00;1.00;;;;;;4964952;28;20290;-89
2022/02/03 10:04:52;;;;;;;10.02;4.95;;;6.80;1.00;;;;;;4985170;28;20228;-87
2022/02/03 10:07:21;;;;;;;11.68;5.50;;;6.90;1.00;;;;;;4978477;28;20258;-89
2022/02/03 10:09:59;;;;;;;11.05;4.90;;;7.00;1.00;;;;;;4964964;28;20907;-88
2022/02/03 10:12:35;;;;;;;12.52;5.20;;;7.10;1.00;;;;;;4973256;28;20232;-90
2022/02/03 10:15:21;;;;;;;12.68;4.85;;;7.10;1.00;;;;;;4968206;28;20234;-90
2022/02/03 10:18:55;;;;;;;7.13;4.40;;;7.00;1.00;;;;;;4930549;28;24190;-89
2022/02/03 10:26:17;;;;;;;11.90;5.60;;;6.90;1.00;;;;;;4787542;29;20239;-90
2022/02/03 10:29:04;;;;;;;13.25;5.88;;;6.90;1.00;;;;;;4851636;29;20272;-89
2022/02/03 10:31:38;;;;;;;13.55;8.90;;;6.90;1.00;;;;;;4897720;28;21041;-85
2022/02/03 10:34:10;;;;;;;13.13;5.93;;;6.80;1.00;;;;;;4952599;28;20269;-85
2022/02/03 10:36:46;;;;;;;13.88;7.50;;;6.80;1.00;;;;;;4970072;28;20718;-86
2022/02/03 10:39:51;;;;;;;12.35;6.00;;;6.80;1.00;;;;;;4943378;28;20232;-86
2022/02/03 10:42:34;;;;;;;12.30;6.90;;;6.60;1.00;;;;;;4974797;28;20371;-86
2022/02/03 10:51:03;;;;;;;10.88;5.30;;;6.50;1.00;;;;;;4945140;28;20252;-86
2022/02/03 10:56:51;;;;;;;11.35;6.60;;;6.40;1.00;;;;;;4964554;28;20224;-87
2022/02/03 11:02:24;;;;;;;12.75;6.30;;;6.30;1.00;;;;;;4946376;28;21240;-88
2022/02/03 11:05:18;;;;;;;10.77;6.45;;;6.30;1.00;;;;;;4967569;28;20228;-87
2022/02/03 11:07:51;;;;;;;13.77;6.75;;;6.30;1.00;;;;;;4965862;28;20232;-87
2022/02/03 11:10:32;;;;;;;10.85;5.80;;;6.30;1.00;;;;;;4957889;28;20325;-89
2022/02/03 11:13:00;;;;;;;14.55;6.47;;;6.30;1.00;;;;;;4962318;28;20220;-87
2022/02/03 11:15:31;;;;;;;14.88;7.35;;;6.20;1.00;;;;;;4957729;28;20234;-86
2022/02/03 11:18:01;;;;;;;14.02;6.47;;;6.20;1.00;;;;;;4955918;28;20222;-87
2022/02/03 11:20:47;;;;;;;9.73;5.97;;;6.20;1.00;;;;;;4981912;28;20240;-86
2022/02/03 11:23:30;;;;;;;11.27;7.07;;;6.20;1.00;;;;;;4982849;28;20241;-87
2022/02/03 11:26:10;;;;;;;16.05;6.60;;;6.20;1.00;;;;;;4953994;28;20291;-87
2022/02/03 11:38:20;;;;;;;11.32;7.50;;;6.30;1.00;;;;;;4973886;28;20236;-88
2022/02/03 11:41:26;;;;;;;17.63;7.95;;;6.30;1.00;;;;;;4976130;28;20283;-88
2022/02/03 11:44:18;;;;;;;14.07;7.90;;;6.30;1.00;;;;;;4979650;28;21030;-86
2022/02/03 11:47:32;;;;;;;11.23;8.75;;;6.30;1.00;;;;;;4959925;28;20231;-87
2022/02/03 11:50:50;;;;;;;13.57;9.35;;;6.30;1.00;;;;;;4975987;28;20229;-88
2022/02/03 12:02:52;;;;;;;15.73;11.57;;;6.40;1.00;;;;;;4910107;29;20234;-86
2022/02/03 12:12:14;;;;;;;15.82;11.70;;;6.40;1.00;;;;;;4871327;29;20519;-84
2022/02/03 12:15:07;;;;;;;17.38;12.80;;;6.40;1.00;;;;;;4950279;28;20233;-85
2022/02/03 12:17:56;;;;;;;16.17;12.15;;;6.30;1.00;;;;;;4968994;28;20226;-85
2022/02/03 12:20:40;;;;;;;16.13;12.32;;;6.40;1.00;;;;;;4959797;28;24202;-84
2022/02/03 12:23:36;;;;;;;14.38;11.93;;;6.40;1.00;;;;;;4945773;28;20240;-85
2022/02/03 12:26:11;;;;;;;16.50;11.52;;;6.40;1.00;;;;;;4949242;28;20239;-84
2022/02/03 12:28:49;;;;;;;16.20;11.18;;;6.40;1.00;;;;;;4968943;28;20238;-85
2022/02/03 12:39:48;;;;;;;13.13;10.73;;;6.60;1.00;;;;;;4965592;28;20236;-85
2022/02/03 12:42:30;;;;;;;13.32;10.57;;;6.60;1.00;;;;;;4961775;28;20228;-86
2022/02/03 12:45:12;;;;;;;13.38;10.73;;;6.60;1.00;;;;;;4962044;28;20228;-85
2022/02/03 12:47:41;;;;;;;13.52;9.15;;;6.60;1.00;;;;;;4965451;28;20239;-84
2022/02/03 12:50:14;;;;;;;11.90;10.50;;;6.60;1.00;;;;;;4946515;28;20331;-85
2022/02/03 12:52:44;;;;;;;13.93;11.02;;;6.70;1.00;;;;;;4968667;28;20292;-86
2022/02/03 12:55:21;;;;;;;13.13;10.32;;;6.70;1.00;;;;;;4967536;28;20232;-84
2022/02/03 12:57:49;;;;;;;13.85;12.00;;;6.70;1.00;;;;;;4964247;28;20225;-83
2022/02/03 13:00:26;;;;;;;17.38;13.63;;;6.60;1.00;;;;;;4962714;28;20327;-86
2022/02/03 13:02:54;;;;;;;15.55;11.55;;;6.70;1.00;;;;;;4971066;28;20243;-85
2022/02/03 13:05:28;;;;;;;13.98;11.63;;;6.70;1.00;;;;;;4966316;28;20220;-84
2022/02/03 13:07:57;;;;;;;14.45;9.95;;;6.70;1.00;;;;;;4961726;28;20336;-84
2022/02/03 13:10:27;;;;;;;13.90;12.10;;;6.70;1.00;;;;;;4970132;28;20240;-85
2022/02/03 13:13:04;;;;;;;14.35;11.90;;;6.60;1.00;;;;;;4977766;28;20212;-88
2022/02/03 13:16:25;;;;;;;12.85;11.45;;;6.70;1.00;;;;;;4974855;28;20284;-89
2022/02/03 13:19:16;;;;;;;12.90;11.35;;;6.70;1.00;;;;;;4900744;29;20322;-87
2022/02/03 13:22:04;;;;;;;13.73;10.38;;;6.80;1.00;;;;;;4890327;29;20243;-87
2022/02/03 13:25:11;;;;;;;14.48;11.85;;;6.80;1.00;;;;;;4947049;28;20287;-86
2022/02/03 13:27:50;;;;;;;14.38;12.18;;;6.80;1.00;;;;;;4971924;28;20236;-88
2022/02/03 13:30:42;;;;;;;14.65;11.75;;;6.70;1.00;;;;;;4956938;28;20271;-89
2022/02/03 13:33:39;;;;;;;16.73;13.57;;;6.70;1.00;;;;;;4973685;28;20224;-91
2022/02/03 13:36:21;;;;;;;16.95;13.82;;;6.70;1.00;;;;;;4954064;28;20303;-88
2022/02/03 13:39:46;;;;;;;15.20;11.75;;;6.70;1.00;;;;;;4974909;28;20279;-88
2022/02/03 13:42:30;;;;;;;13.13;11.40;;;6.70;1.00;;;;;;4960126;28;20248;-87
2022/02/03 13:45:15;;;;;;;16.02;12.85;;;6.70;1.00;;;;;;4952636;28;20268;-88
2022/02/03 13:47:49;;;;;;;16.42;12.80;;;6.70;1.00;;;;;;4951657;28;20224;-89
2022/02/03 13:50:24;;;;;;;18.35;12.88;;;6.80;1.00;;;;;;4968375;28;20230;-89
2022/02/03 13:53:34;;;;;;;16.45;12.20;;;6.90;1.00;;;;;;4972657;28;20225;-89
2022/02/03 14:20:05;;;;;;;19.88;15.50;;;7.00;1.00;;;;;;4864802;29;21451;-88
2022/02/03 14:22:57;;;;;;;20.35;15.48;;;7.00;1.00;;;;;;4890701;29;20239;-88
2022/02/03 14:28:11;;;;;;;20.63;17.05;;;7.10;1.00;;;;;;4891490;29;20271;-88
2022/02/03 14:31:00;;;;;;;23.13;17.85;;;7.10;1.00;;;;;;4890562;29;20304;-87
2022/02/03 14:33:30;;;;;;;20.70;15.48;;;7.10;1.00;;;;;;4904987;29;20229;-87
2022/02/03 14:36:05;;;;;;;21.88;17.35;;;7.10;1.00;;;;;;4894501;29;20246;-87
2022/02/03 14:38:41;;;;;;;26.35;21.77;;;7.10;1.00;;;;;;4906633;29;20300;-87
2022/02/03 14:41:23;;;;;;;20.55;16.67;;;7.20;1.00;;;;;;4899390;29;20242;-90
2022/02/03 14:43:59;;;;;;;21.60;16.35;;;7.20;1.00;;;;;;4890224;29;20273;-87
2022/02/03 14:46:31;;;;;;;19.50;16.17;;;7.30;1.00;;;;;;4916136;29;20270;-89
2022/02/03 14:48:59;;;;;;;25.15;19.88;;;7.20;1.00;;;;;;4915683;28;20263;-85
2022/02/03 14:51:31;;;;;;;23.80;19.00;;;7.20;1.00;;;;;;4921178;28;20257;-88
2022/02/03 14:57:59;;;;;;;26.40;20.95;;;7.20;1.00;;;;;;4915587;28;20225;-86
2022/02/03 14:59:33;;;;;;;23.33;18.05;;;7.20;1.00;;;;;;4898108;29;20245;-87
2022/02/03 15:02:07;;;;;;;22.52;18.23;;;7.20;1.00;;;;;;4907443;29;20223;-88
2022/02/03 15:04:35;;;;;;;20.70;18.33;;;7.20;1.00;;;;;;4909337;29;22337;-87
2022/02/03 15:07:04;;;;;;;25.73;18.75;;;7.20;1.00;;;;;;4903719;29;20227;-86
2022/02/03 15:09:49;;;;;;;20.70;16.50;;;7.20;1.00;;;;;;4902865;29;20243;-87
2022/02/03 15:12:37;;;;;;;25.17;18.58;;;7.20;1.00;;;;;;4900765;29;20311;-87
2022/02/03 15:15:06;;;;;;;22.30;17.75;;;7.20;1.00;;;;;;4898498;29;20228;-88
2022/02/03 15:17:35;;;;;;;23.75;18.60;;;7.20;1.00;;;;;;4898922;29;20247;-88
2022/02/03 15:20:04;;;;;;;21.13;18.15;;;7.20;1.00;;;;;;4899195;29;20254;-85
2022/02/03 15:22:31;;;;;;;30.30;23.13;;;7.20;1.00;;;;;;4906149;29;20228;-85
2022/02/03 15:25:00;;;;;;;25.20;21.88;;;7.20;1.00;;;;;;4907549;29;20295;-83
2022/02/03 15:27:27;;;;;;;26.63;20.13;;;7.30;1.00;;;;;;4902620;29;20291;-83
2022/02/03 15:29:56;;;;;;;25.92;20.33;;;7.30;1.00;;;;;;4902718;29;20241;-83
2022/02/03 15:32:24;;;;;;;25.08;19.00;;;7.30;1.00;;;;;;4899789;29;20247;-83
2022/02/03 15:34:54;;;;;;;22.13;19.77;;;7.20;1.00;;;;;;4883417;29;20266;-84
2022/02/03 15:37:22;;;;;;;25.10;19.63;;;7.20;1.00;;;;;;4889531;29;21074;-87
2022/02/03 15:39:51;;;;;;;26.88;21.77;;;7.20;1.00;;;;;;4885033;29;20244;-84
2022/02/03 15:42:25;;;;;;;27.40;24.33;;;7.20;1.00;;;;;;4888716;29;20316;-85
2022/02/03 15:44:55;;;;;;;25.05;18.92;;;7.20;1.00;;;;;;4883015;29;20222;-84
2022/02/03 15:47:31;;;;;;;26.63;22.48;;;7.20;1.00;;;;;;4881601;29;20314;-85
2022/02/03 15:50:36;;;;;;;26.77;21.83;;;7.20;1.00;;;;;;4882985;29;20248;-84
2022/02/03 15:59:25;;;;;;;24.10;19.67;;;7.30;1.00;;;;;;4883822;29;20239;-87
2022/02/03 16:16:54;;;;;;;28.80;23.35;;;7.30;1.00;;;;;;4891844;29;20334;-83
2022/02/03 16:19:32;;;;;;;27.65;23.95;;;7.30;1.00;;;;;;4889892;29;20971;-88
2022/02/03 16:22:08;;;;;;;24.02;20.63;;;7.40;1.00;;;;;;4885269;29;20223;-84
2022/02/03 16:24:44;;;;;;;28.75;23.88;;;7.40;1.00;;;;;;4886677;29;20252;-83
2022/02/03 16:50:33;;;;;;;17.98;13.68;;;7.40;1.00;;;;;;4906533;29;20216;-87
2022/02/03 16:53:01;;;;;;;18.33;15.35;;;7.40;1.00;;;;;;4904889;29;20237;-84
2022/02/03 16:55:34;;;;;;;18.90;15.02;;;7.50;1.00;;;;;;4907920;29;20222;-82
2022/02/03 16:58:03;;;;;;;15.75;13.18;;;7.50;1.00;;;;;;4895647;29;20621;-85
2022/02/03 17:00:37;;;;;;;18.05;13.80;;;7.60;1.00;;;;;;4893278;29;20236;-84
2022/02/03 17:03:04;;;;;;;16.23;13.45;;;7.60;1.00;;;;;;4888093;29;20235;-82
2022/02/03 17:05:34;;;;;;;16.85;14.40;;;7.70;1.00;;;;;;4898489;29;20227;-81
2022/02/03 17:08:03;;;;;;;21.67;15.98;;;7.60;1.00;;;;;;4873998;29;20323;-84
2022/02/03 17:10:32;;;;;;;19.20;15.45;;;7.60;1.00;;;;;;4881599;29;20285;-87
2022/02/03 17:12:59;;;;;;;22.08;17.20;;;7.70;1.00;;;;;;4883545;29;20230;-87
2022/02/03 17:15:30;;;;;;;22.33;18.05;;;7.70;1.00;;;;;;4885663;29;20242;-87
2022/02/03 17:18:13;;;;;;;25.27;19.88;;;7.60;1.00;;;;;;4887974;29;20335;-89
2022/02/03 17:20:42;;;;;;;29.73;23.45;;;7.70;1.00;;;;;;4856596;29;20296;-87
2022/02/03 17:23:16;;;;;;;28.88;23.85;;;7.70;1.00;;;;;;4877853;29;20239;-84
2022/02/03 17:25:52;;;;;;;28.70;25.13;;;7.70;1.00;;;;;;4880502;29;20237;-89
2022/02/03 17:28:23;;;;;;;28.52;23.90;;;7.60;1.00;;;;;;4881168;29;20225;-84
2022/02/03 17:30:56;;;;;;;28.60;22.65;;;7.70;1.00;;;;;;4879998;29;20229;-82
2022/02/03 17:45:43;;;;;;;30.60;25.23;;;7.70;1.00;;;;;;4935473;28;20267;-81
2022/02/03 18:05:17;;;;;;;27.23;21.15;;;7.70;1.00;;;;;;4937401;28;20240;-82
2022/02/03 18:08:05;;;;;;;21.40;17.60;;;7.70;1.00;;;;;;4936289;28;20227;-83
2022/02/03 18:10:41;;;;;;;25.40;18.73;;;7.70;1.00;;;;;;4928882;28;20228;-85
2022/02/03 18:28:04;;;;;;;30.02;22.40;;;7.60;1.00;;;;;;4930036;28;20304;-84
2022/02/03 18:30:14;;;;;;;27.25;21.95;;;7.60;1.00;;;;;;4930944;28;20240;-83
2022/02/03 18:32:53;;;;;;;26.77;21.77;;;7.70;1.00;;;;;;4933571;28;20225;-83
2022/02/03 18:35:45;;;;;;;28.55;22.15;;;7.70;1.00;;;;;;4923871;28;20239;-84
2022/02/03 18:47:23;;;;;;;17.67;15.05;;;7.80;1.00;;;;;;4893743;28;20270;-83
2022/02/03 18:49:57;;;;;;;24.67;15.85;;;7.80;1.00;;;;;;4936664;28;20238;-83
2022/02/03 18:52:28;;;;;;;17.70;13.85;;;7.80;1.00;;;;;;4940000;28;20265;-81
2022/02/03 18:55:09;;;;;;;20.88;15.95;;;7.70;1.00;;;;;;4935374;28;20277;-83
2022/02/03 18:57:46;;;;;;;21.88;16.42;;;7.70;1.00;;;;;;4941247;28;20225;-83
2022/02/03 19:03:21;;;;;;;20.23;14.13;;;7.70;1.00;;;;;;4944609;28;20225;-82
2022/02/03 19:25:52;;;;;;;20.05;15.75;;;7.60;1.00;;;;;;4942430;28;20237;-83
2022/02/03 20:04:19;;;;;;;28.83;18.70;;;7.60;1.00;;;;;;4856890;29;20292;-80
2022/02/03 20:06:57;;;;;;;23.83;18.60;;;7.70;1.00;;;;;;4917916;28;20321;-81
2022/02/03 20:09:29;;;;;;;24.25;18.27;;;7.60;1.00;;;;;;4944187;28;20230;-81
2022/02/03 20:11:56;;;;;;;23.52;17.80;;;7.60;1.00;;;;;;4941173;28;21626;-81
2022/02/03 20:14:24;;;;;;;26.52;18.75;;;7.70;1.00;;;;;;4937157;28;20234;-81
2022/02/03 20:16:51;;;;;;;25.42;18.80;;;7.70;1.00;;;;;;4940721;28;20291;-81
2022/02/03 20:19:19;;;;;;;27.40;19.15;;;7.70;1.00;;;;;;4937032;28;20241;-81
2022/02/03 20:21:46;;;;;;;22.98;18.48;;;7.60;1.00;;;;;;4935827;28;20273;-82
2022/02/03 20:24:13;;;;;;;26.70;19.50;;;7.60;1.00;;;;;;4928516;28;20662;-80
2022/02/03 20:26:42;;;;;;;24.42;19.08;;;7.60;1.00;;;;;;4940143;28;20321;-83
2022/02/03 20:29:10;;;;;;;25.23;19.38;;;7.60;1.00;;;;;;4945065;28;20233;-81
2022/02/03 20:31:37;;;;;;;25.13;18.50;;;7.60;1.00;;;;;;4942971;28;20232;-82
2022/02/03 20:34:04;;;;;;;25.88;20.50;;;7.60;1.00;;;;;;4935973;28;20240;-83
2022/02/03 20:36:32;;;;;;;25.50;19.70;;;7.60;1.00;;;;;;4913914;28;20233;-81
2022/02/03 20:38:59;;;;;;;26.98;20.83;;;7.60;1.00;;;;;;4938835;28;20515;-82
2022/02/03 20:41:28;;;;;;;25.15;19.52;;;7.60;1.00;;;;;;4938069;28;20327;-82
2022/02/03 20:43:55;;;;;;;26.70;20.25;;;7.60;1.00;;;;;;4940886;28;20250;-82
2022/02/03 20:46:22;;;;;;;26.80;19.10;;;7.60;1.00;;;;;;4919228;28;20279;-82
2022/02/03 20:48:49;;;;;;;30.00;20.55;;;7.60;1.00;;;;;;4939081;28;20240;-82
2022/02/03 20:51:18;;;;;;;27.40;20.67;;;7.60;1.00;;;;;;4935727;28;20352;-82
2022/02/03 20:53:47;;;;;;;26.35;19.25;;;7.60;1.00;;;;;;4919702;28;21139;-83
2022/02/03 20:56:15;;;;;;;26.20;20.03;;;7.60;1.00;;;;;;4939355;28;20228;-81
2022/02/03 20:58:43;;;;;;;25.40;18.42;;;7.60;1.00;;;;;;4931414;28;20524;-81
2022/02/03 21:01:15;;;;;;;28.70;19.70;;;7.60;1.00;;;;;;4929452;28;20232;-81
2022/02/03 21:03:45;;;;;;;29.73;21.70;;;7.70;1.00;;;;;;4957627;28;20431;-83
2022/02/03 21:06:14;;;;;;;26.47;20.40;;;7.70;1.00;;;;;;4953014;28;20292;-82
2022/02/03 21:08:45;;;;;;;31.65;23.42;;;7.70;1.00;;;;;;4956305;28;20435;-83
2022/02/03 21:11:13;;;;;;;30.63;24.77;;;7.60;1.00;;;;;;4966938;28;20219;-83
2022/02/03 21:13:40;;;;;;;34.33;25.27;;;7.60;1.00;;;;;;4943340;28;20803;-81
2022/02/03 21:16:08;;;;;;;39.35;28.52;;;7.50;1.00;;;;;;4927048;28;20320;-81
2022/02/03 21:18:40;;;;;;;35.08;26.48;;;7.50;1.00;;;;;;4941428;28;20308;-81
2022/02/03 21:21:07;;;;;;;40.50;29.33;;;7.50;1.00;;;;;;4926969;28;20229;-81
2022/02/03 21:23:35;;;;;;;41.30;30.17;;;7.50;1.00;;;;;;4923036;28;20230;-81
2022/02/03 21:26:05;;;;;;;37.28;29.55;;;7.60;1.00;;;;;;4924609;28;20316;-80
2022/02/03 21:28:35;;;;;;;37.85;27.92;;;7.60;1.00;;;;;;4937874;28;20233;-81
2022/02/03 21:31:06;;;;;;;31.00;24.90;;;7.60;1.00;;;;;;4941408;28;20332;-81
2022/02/03 21:33:35;;;;;;;35.25;28.50;;;7.60;1.00;;;;;;4940615;28;20228;-82
2022/02/03 21:36:08;;;;;;;35.92;26.73;;;7.60;1.00;;;;;;4935942;28;20240;-81
2022/02/03 21:38:37;;;;;;;32.67;25.83;;;7.60;1.00;;;;;;4940207;28;21584;-81
2022/02/03 21:41:04;;;;;;;35.65;25.45;;;7.50;1.00;;;;;;4940357;28;21192;-79
2022/02/03 21:43:32;;;;;;;32.28;25.30;;;7.50;1.00;;;;;;4923988;28;20236;-79
2022/02/03 21:45:59;;;;;;;35.00;24.48;;;7.50;1.00;;;;;;4942736;28;20228;-80
2022/02/03 21:48:26;;;;;;;37.50;25.45;;;7.50;1.00;;;;;;4949406;28;20225;-79
2022/02/03 21:50:54;;;;;;;34.92;25.73;;;7.40;1.00;;;;;;4942801;28;20298;-79
2022/02/03 21:53:25;;;;;;;33.70;25.63;;;7.50;1.00;;;;;;4920885;28;20286;-78
2022/02/03 21:55:54;;;;;;;34.58;25.65;;;7.40;1.00;;;;;;4937649;28;20218;-79
2022/02/03 21:58:25;;;;;;;37.05;25.13;;;7.50;1.00;;;;;;4925817;28;20357;-79
2022/02/03 22:00:54;;;;;;;35.28;26.13;;;7.40;1.00;;;;;;4945496;28;20415;-79
2022/02/03 22:03:24;;;;;;;32.45;23.92;;;7.50;1.00;;;;;;4938756;28;21093;-79
2022/02/03 22:05:51;;;;;;;27.60;19.77;;;7.50;1.00;;;;;;4938581;28;20241;-79
2022/02/03 22:08:17;;;;;;;27.25;19.25;;;7.50;1.00;;;;;;4938631;28;20229;-79